Lightstreet, Pennsylvania
Current Conditions -  °F | °C
As of 11:35 AM on Sunday 25 Jan 2015 (Local Time) from KHZL Reporting Station
Overcast Overcast  
Wind Chill: 24°   Ceiling: 4200
Heat Index: 32°   Visibility: 10mi
Dew Point: 21°   Wind: 9mph
Humidity: 64%   Direction: 290°WNW
Pressure: 29.76"   Gusts: 20mph
Location:  41.0036°N, 76.4553°W
Report Text: KHZL 251635Z AUTO 29008G17KT 10SM BKN042 OVC050 00/M06 A2976 RMK AO2
Loading
Personal Weather Stations






























Interactive Weather Map New forecast layout! Learn more

10-Day Weather Forecast

Advertisements
Track Severe Weather on mobile